createdAt,value
2022-10-18T00:00:22.164Z,36.61
2022-10-18T00:01:53.749Z,37.02
2022-10-18T00:03:25.313Z,37.07
2022-10-18T00:04:57.462Z,37.37
2022-10-18T00:06:29.365Z,36.78
2022-10-18T00:08:01.023Z,37.03
2022-10-18T00:09:32.590Z,36.89
2022-10-18T00:11:04.352Z,37.26
2022-10-18T00:12:36.407Z,37.23
2022-10-18T00:14:08.140Z,37.88
2022-10-18T00:15:52.107Z,37.78
2022-10-18T00:17:24.210Z,37.48
2022-10-18T00:18:55.868Z,37.90
2022-10-18T00:20:27.929Z,37.71
2022-10-18T00:21:59.433Z,38.17
2022-10-18T00:23:34.890Z,38.03
2022-10-18T00:25:12.104Z,37.76
2022-10-18T00:26:46.718Z,38.25
2022-10-18T00:28:18.739Z,38.05
2022-10-18T00:29:52.719Z,38.48
2022-10-18T00:31:28.364Z,38.35
2022-10-18T00:33:00.317Z,38.15
2022-10-18T00:34:31.838Z,37.93
2022-10-18T00:36:03.417Z,37.91
2022-10-18T00:37:35.429Z,38.19
2022-10-18T00:39:07.232Z,38.00
2022-10-18T00:40:38.891Z,38.28
2022-10-18T00:42:17.568Z,38.12
2022-10-18T00:44:02.548Z,38.39
2022-10-18T00:45:34.033Z,38.58
2022-10-18T00:47:07.688Z,38.26
2022-10-18T00:48:39.453Z,38.22
2022-10-18T00:50:11.126Z,38.09
2022-10-18T00:51:44.460Z,38.33
2022-10-18T00:53:16.775Z,38.21
2022-10-18T00:54:49.237Z,38.28
2022-10-18T00:56:20.731Z,38.32
2022-10-18T00:57:52.318Z,38.60
2022-10-18T00:59:25.431Z,38.38
2022-10-18T01:00:57.870Z,38.40
2022-10-18T01:02:29.566Z,38.72
2022-10-18T01:04:01.265Z,39.22
2022-10-18T01:05:32.854Z,39.00
2022-10-18T01:07:10.671Z,39.24
2022-10-18T01:09:00.858Z,39.04
2022-10-18T01:10:51.458Z,38.80
2022-10-18T01:12:33.383Z,38.97
2022-10-18T01:14:17.320Z,38.82
2022-10-18T01:16:04.126Z,38.82
2022-10-18T01:17:54.521Z,39.04
2022-10-18T01:19:34.602Z,39.20
2022-10-18T01:21:15.248Z,38.99
2022-10-18T01:22:52.264Z,39.21
2022-10-18T01:24:42.085Z,39.33
2022-10-18T01:26:25.798Z,39.26
2022-10-18T01:28:15.656Z,39.28
2022-10-18T01:29:47.133Z,38.82
2022-10-18T01:31:20.891Z,39.31
2022-10-18T01:32:53.190Z,39.00
2022-10-18T01:34:24.759Z,39.29
2022-10-18T01:36:01.426Z,39.17
2022-10-18T01:37:33.343Z,39.45
2022-10-18T01:39:06.407Z,39.36
2022-10-18T01:40:38.068Z,39.50
2022-10-18T01:42:10.537Z,39.68
2022-10-18T01:43:42.039Z,39.69
2022-10-18T01:45:14.046Z,39.42
2022-10-18T01:46:45.890Z,39.74
2022-10-18T01:48:18.120Z,39.79
2022-10-18T01:49:49.732Z,39.83
2022-10-18T01:51:28.079Z,39.92
2022-10-18T01:52:59.765Z,40.02
2022-10-18T01:54:33.276Z,39.94
2022-10-18T01:56:10.976Z,40.19
2022-10-18T01:57:56.579Z,39.96
2022-10-18T01:59:40.084Z,40.27
2022-10-18T02:01:22.883Z,39.72
2022-10-18T02:02:56.379Z,39.86
2022-10-18T02:04:47.180Z,39.96
2022-10-18T02:06:29.349Z,40.33
2022-10-18T02:08:22.082Z,40.42
2022-10-18T02:10:02.565Z,40.46
2022-10-18T02:11:34.191Z,40.16
2022-10-18T02:13:05.773Z,40.60
2022-10-18T02:14:37.861Z,40.31
2022-10-18T02:16:27.791Z,40.16
2022-10-18T02:17:59.393Z,40.15
2022-10-18T02:19:31.600Z,40.09
2022-10-18T02:21:03.903Z,40.47
2022-10-18T02:22:35.475Z,40.34
2022-10-18T02:24:07.156Z,40.95
2022-10-18T02:25:38.875Z,40.14
2022-10-18T02:27:10.413Z,40.42
2022-10-18T02:28:42.024Z,40.42
2022-10-18T02:30:15.598Z,40.68
2022-10-18T02:31:47.813Z,40.95
2022-10-18T02:33:37.759Z,40.50
2022-10-18T02:35:29.578Z,40.93
2022-10-18T02:37:01.414Z,41.12
2022-10-18T02:38:33.195Z,41.19
2022-10-18T02:40:05.403Z,40.77
2022-10-18T02:41:36.958Z,41.17
2022-10-18T02:43:08.653Z,41.15
2022-10-18T02:44:40.522Z,40.69
2022-10-18T02:46:12.102Z,40.76
2022-10-18T02:47:43.755Z,41.55
2022-10-18T02:49:15.291Z,40.71
2022-10-18T02:50:46.883Z,40.85
2022-10-18T02:52:18.339Z,41.31
2022-10-18T02:53:50.598Z,41.01
2022-10-18T02:55:22.089Z,40.82
2022-10-18T02:56:53.713Z,40.91
2022-10-18T02:58:25.193Z,41.17
2022-10-18T02:59:56.871Z,41.00
2022-10-18T03:01:28.526Z,41.10
2022-10-18T03:03:00.089Z,41.11
2022-10-18T03:04:31.709Z,41.28
2022-10-18T03:06:03.291Z,41.29
2022-10-18T03:07:35.135Z,41.13
2022-10-18T03:09:06.846Z,41.58
2022-10-18T03:10:38.418Z,41.65
2022-10-18T03:12:10.546Z,41.15
2022-10-18T03:13:42.405Z,42.03
2022-10-18T03:15:14.118Z,41.11
2022-10-18T03:16:45.672Z,41.34
2022-10-18T03:18:17.274Z,41.58
2022-10-18T03:19:48.741Z,41.48
2022-10-18T03:21:20.379Z,42.30
2022-10-18T03:22:51.993Z,41.92
2022-10-18T03:24:23.643Z,41.72
2022-10-18T03:25:55.274Z,41.91
2022-10-18T03:27:26.904Z,42.55
2022-10-18T03:28:58.501Z,42.11
2022-10-18T03:30:30.085Z,42.53
2022-10-18T03:32:01.713Z,42.64
2022-10-18T03:33:33.412Z,42.24
2022-10-18T03:35:05.717Z,42.08
2022-10-18T03:36:38.798Z,42.61
2022-10-18T03:38:10.454Z,41.75
2022-10-18T03:39:42.759Z,42.05
2022-10-18T03:41:14.354Z,42.32
2022-10-18T03:42:47.035Z,42.09
2022-10-18T03:44:18.973Z,42.83
2022-10-18T03:45:50.758Z,42.72
2022-10-18T03:47:22.268Z,42.25
2022-10-18T03:48:53.867Z,42.14
2022-10-18T03:50:25.475Z,42.33
2022-10-18T03:51:57.019Z,42.35
2022-10-18T03:53:28.964Z,42.40
2022-10-18T03:55:00.594Z,42.70
2022-10-18T03:56:33.147Z,42.38
2022-10-18T03:58:04.708Z,43.17
2022-10-18T03:59:36.291Z,43.14
2022-10-18T04:01:07.920Z,43.13
2022-10-18T04:02:39.514Z,42.46
2022-10-18T04:04:11.615Z,42.33
2022-10-18T04:05:43.159Z,42.74
2022-10-18T04:07:14.877Z,42.29
2022-10-18T04:08:46.787Z,42.26
2022-10-18T04:10:18.915Z,42.97
2022-10-18T04:11:50.790Z,42.28
2022-10-18T04:13:22.329Z,42.67
2022-10-18T04:14:55.566Z,42.74
2022-10-18T04:16:27.418Z,43.15
2022-10-18T04:17:59.169Z,43.06
2022-10-18T04:19:30.959Z,43.19
2022-10-18T04:21:02.569Z,42.63
2022-10-18T04:22:34.168Z,43.13
2022-10-18T04:24:06.827Z,43.14
2022-10-18T04:25:39.004Z,42.96
2022-10-18T04:27:10.766Z,42.97
2022-10-18T04:28:42.618Z,42.98
2022-10-18T04:30:14.307Z,43.00
2022-10-18T04:31:45.950Z,43.53
2022-10-18T04:33:18.117Z,43.09
2022-10-18T04:34:49.746Z,43.84
2022-10-18T04:36:21.233Z,43.65
2022-10-18T04:37:52.826Z,43.52
2022-10-18T04:39:24.420Z,43.86
2022-10-18T04:40:55.945Z,44.13
2022-10-18T04:42:27.481Z,43.88
2022-10-18T04:43:59.747Z,43.98
2022-10-18T04:45:31.342Z,44.04
2022-10-18T04:47:02.971Z,44.03
2022-10-18T04:48:34.592Z,43.52
2022-10-18T04:50:06.422Z,43.98
2022-10-18T04:51:37.989Z,43.61
2022-10-18T04:53:09.787Z,44.23
2022-10-18T04:54:41.540Z,44.42
2022-10-18T04:56:13.163Z,44.07
2022-10-18T04:57:44.663Z,44.12
2022-10-18T04:59:16.312Z,43.53
2022-10-18T05:00:48.059Z,44.31
2022-10-18T05:02:19.692Z,44.44
2022-10-18T05:03:54.457Z,44.06
2022-10-18T05:05:43.229Z,44.07
2022-10-18T05:07:17.679Z,43.78
2022-10-18T05:08:49.381Z,44.52
2022-10-18T05:10:20.923Z,43.87
2022-10-18T05:11:52.596Z,43.85
2022-10-18T05:13:24.174Z,44.07
2022-10-18T05:14:56.871Z,44.12
2022-10-18T05:16:28.653Z,44.13
2022-10-18T05:18:00.225Z,43.94
2022-10-18T05:19:31.844Z,44.72
2022-10-18T05:21:03.417Z,43.88
2022-10-18T05:22:35.024Z,43.92
2022-10-18T05:24:06.822Z,43.88
2022-10-18T05:25:44.740Z,44.03
2022-10-18T05:27:16.439Z,44.04
2022-10-18T05:28:49.255Z,44.89
2022-10-18T05:30:21.836Z,44.99
2022-10-18T05:31:53.465Z,44.75
2022-10-18T05:33:24.964Z,44.68
2022-10-18T05:34:56.584Z,44.69
2022-10-18T05:36:28.168Z,44.49
2022-10-18T05:38:02.597Z,44.15
2022-10-18T05:39:34.263Z,44.67
2022-10-18T05:41:06.308Z,44.55
2022-10-18T05:42:37.913Z,45.12
2022-10-18T05:44:09.615Z,44.95
2022-10-18T05:45:47.121Z,44.86
2022-10-18T05:47:18.761Z,44.94
2022-10-18T05:48:51.312Z,45.16
2022-10-18T05:50:23.088Z,45.13
2022-10-18T05:51:54.697Z,44.89
2022-10-18T05:53:36.225Z,44.71
2022-10-18T05:55:09.078Z,45.04
2022-10-18T05:56:40.930Z,44.91
2022-10-18T05:58:12.660Z,45.54
2022-10-18T05:59:44.353Z,45.15
2022-10-18T06:01:16.039Z,45.40
2022-10-18T06:02:47.633Z,45.03
2022-10-18T06:04:19.864Z,44.97
2022-10-18T06:05:51.383Z,45.08
2022-10-18T06:07:23.188Z,45.11
2022-10-18T06:08:54.805Z,45.18
2022-10-18T06:10:26.507Z,45.20
2022-10-18T06:11:58.262Z,45.09
2022-10-18T06:13:31.237Z,44.96
2022-10-18T06:15:04.428Z,45.02
2022-10-18T06:18:08.919Z,45.51
2022-10-18T06:19:40.753Z,45.26
2022-10-18T06:21:12.288Z,44.82
2022-10-18T06:22:43.858Z,45.19
2022-10-18T06:24:15.443Z,45.17
2022-10-18T06:25:46.931Z,44.73
2022-10-18T06:27:18.550Z,45.26
2022-10-18T06:28:50.350Z,44.89
2022-10-18T06:30:22.015Z,44.66
2022-10-18T06:31:53.647Z,44.49
2022-10-18T06:33:25.393Z,44.82
2022-10-18T06:34:56.909Z,44.64
2022-10-18T06:36:28.529Z,43.79
2022-10-18T06:38:00.145Z,44.71
2022-10-18T06:39:31.754Z,44.12
2022-10-18T06:41:03.612Z,44.19
2022-10-18T06:42:35.373Z,44.23
2022-10-18T06:44:13.900Z,44.07
2022-10-18T06:45:45.808Z,44.84
2022-10-18T06:47:17.519Z,44.09
2022-10-18T06:48:49.221Z,43.94
2022-10-18T06:50:20.828Z,44.70
2022-10-18T06:51:53.727Z,44.81
2022-10-18T06:53:25.663Z,44.60
2022-10-18T06:54:57.316Z,44.26
2022-10-18T06:56:29.162Z,44.48
2022-10-18T06:58:00.799Z,44.42
2022-10-18T06:59:32.478Z,44.36
2022-10-18T07:01:13.997Z,44.06
2022-10-18T07:02:45.802Z,44.17
2022-10-18T07:04:17.250Z,43.81
2022-10-18T07:05:49.821Z,43.85
2022-10-18T07:07:22.349Z,43.99
2022-10-18T07:08:54.509Z,43.95
2022-10-18T07:10:26.403Z,43.67
2022-10-18T07:11:58.140Z,43.50
2022-10-18T07:13:32.738Z,43.38
2022-10-18T07:15:09.082Z,43.35
2022-10-18T07:16:41.137Z,43.34
2022-10-18T07:18:13.053Z,43.15
2022-10-18T07:19:44.671Z,43.11
2022-10-18T07:21:16.815Z,43.07
2022-10-18T07:22:48.365Z,42.92
2022-10-18T07:24:20.259Z,42.92
2022-10-18T07:25:51.828Z,42.78
2022-10-18T07:27:23.692Z,42.66
2022-10-18T07:28:56.370Z,42.43
2022-10-18T07:30:28.071Z,42.79
2022-10-18T07:31:59.803Z,42.58
2022-10-18T07:33:31.592Z,42.56
2022-10-18T07:35:03.795Z,42.53
2022-10-18T07:36:35.484Z,42.49
2022-10-18T07:38:07.002Z,42.12
2022-10-18T07:39:38.706Z,42.20
2022-10-18T07:41:11.108Z,42.54
2022-10-18T07:42:42.938Z,42.54
2022-10-18T07:44:14.550Z,42.29
2022-10-18T07:45:51.649Z,42.49
2022-10-18T07:47:23.178Z,42.12
2022-10-18T07:48:54.995Z,42.33
2022-10-18T07:50:26.565Z,42.15
2022-10-18T07:51:58.161Z,41.91
2022-10-18T07:53:30.197Z,41.86
2022-10-18T07:55:01.965Z,41.95
2022-10-18T07:56:33.654Z,41.81
2022-10-18T07:58:05.320Z,41.71
2022-10-18T07:59:38.864Z,41.66
2022-10-18T08:01:10.494Z,41.52
2022-10-18T08:02:42.227Z,41.52
2022-10-18T08:04:16.381Z,41.16
2022-10-18T08:05:51.909Z,40.90
2022-10-18T08:07:23.584Z,40.93
2022-10-18T08:08:55.284Z,41.20
2022-10-18T08:10:26.951Z,40.85
2022-10-18T08:11:58.661Z,40.70
2022-10-18T08:13:30.721Z,40.77
2022-10-18T08:15:02.860Z,40.50
2022-10-18T08:16:34.587Z,40.43
2022-10-18T08:18:06.157Z,40.15
2022-10-18T08:19:37.935Z,40.49
2022-10-18T08:21:10.553Z,40.57
2022-10-18T08:22:42.167Z,40.68
2022-10-18T08:24:13.683Z,40.66
2022-10-18T08:25:45.781Z,40.61
2022-10-18T08:27:17.314Z,40.07
2022-10-18T08:28:53.906Z,39.88
2022-10-18T08:30:35.646Z,39.84
2022-10-18T08:32:08.064Z,39.71
2022-10-18T08:33:40.096Z,39.66
2022-10-18T08:35:11.713Z,39.43
2022-10-18T08:36:43.353Z,39.41
2022-10-18T08:38:18.039Z,39.50
2022-10-18T08:39:50.463Z,39.31
2022-10-18T08:41:32.239Z,39.28
2022-10-18T08:43:21.458Z,39.19
2022-10-18T08:44:53.407Z,39.05
2022-10-18T08:46:25.489Z,39.00
2022-10-18T08:47:57.932Z,38.84
2022-10-18T08:49:45.629Z,39.00
2022-10-18T08:51:39.203Z,39.13
2022-10-18T08:53:13.570Z,39.13
2022-10-18T08:55:03.537Z,38.92
2022-10-18T08:56:35.239Z,38.73
2022-10-18T08:58:27.135Z,38.57
2022-10-18T08:59:58.919Z,38.37
2022-10-18T09:01:45.983Z,38.28
2022-10-18T09:03:31.237Z,38.01
2022-10-18T09:05:05.711Z,38.02
2022-10-18T09:06:55.914Z,38.13
2022-10-18T09:08:31.598Z,38.05
2022-10-18T09:10:15.191Z,37.89
2022-10-18T09:11:52.775Z,37.84
2022-10-18T09:13:32.680Z,37.73
2022-10-18T09:15:04.300Z,37.50
2022-10-18T09:16:44.976Z,37.35
2022-10-18T09:18:29.442Z,37.32
2022-10-18T09:20:04.112Z,36.96
2022-10-18T09:21:52.449Z,36.87
2022-10-18T09:23:27.081Z,36.77
2022-10-18T09:25:02.868Z,36.94
2022-10-18T09:26:40.020Z,36.84
2022-10-18T09:28:14.147Z,36.93
2022-10-18T09:29:45.695Z,36.81
2022-10-18T09:31:23.088Z,36.46
2022-10-18T09:32:57.485Z,36.39
2022-10-18T09:34:31.532Z,36.34
2022-10-18T09:36:06.368Z,36.22
2022-10-18T09:37:38.528Z,36.13
2022-10-18T09:39:16.803Z,35.92
2022-10-18T09:40:51.414Z,35.96
2022-10-18T09:42:27.057Z,36.04
2022-10-18T09:44:03.685Z,35.86
2022-10-18T09:45:35.730Z,35.79
2022-10-18T09:47:14.562Z,35.67
2022-10-18T09:48:58.370Z,35.59
2022-10-18T09:50:30.013Z,35.66
2022-10-18T09:52:02.396Z,35.35
2022-10-18T09:53:49.480Z,35.28
2022-10-18T09:55:25.376Z,35.24
2022-10-18T09:57:04.427Z,35.06
2022-10-18T09:58:38.991Z,34.76
2022-10-18T10:00:17.805Z,34.85
2022-10-18T10:01:49.414Z,34.88
2022-10-18T10:03:21.339Z,34.80
2022-10-18T10:04:54.395Z,34.83
2022-10-18T10:06:29.495Z,34.58
2022-10-18T10:08:03.027Z,34.26
2022-10-18T10:09:41.030Z,34.20
2022-10-18T10:11:31.116Z,34.06
2022-10-18T10:13:06.488Z,33.97
2022-10-18T10:14:43.402Z,34.11
2022-10-18T10:16:15.054Z,34.00
2022-10-18T10:17:58.975Z,34.01
2022-10-18T10:19:54.296Z,33.96
2022-10-18T10:21:26.140Z,33.83
2022-10-18T10:23:04.243Z,33.66
2022-10-18T10:24:35.932Z,33.82
2022-10-18T10:26:20.027Z,33.82
2022-10-18T10:27:51.684Z,33.75
2022-10-18T10:29:47.563Z,33.59
2022-10-18T10:31:25.482Z,33.35
2022-10-18T10:32:57.418Z,33.37
2022-10-18T10:34:29.432Z,33.15
2022-10-18T10:36:01.913Z,32.90
2022-10-18T10:37:35.317Z,32.95
2022-10-18T10:39:07.171Z,32.72
2022-10-18T10:40:50.370Z,32.48
2022-10-18T10:42:22.116Z,32.38
2022-10-18T10:43:53.745Z,32.60
2022-10-18T10:45:26.098Z,32.28
2022-10-18T10:46:57.782Z,32.21
2022-10-18T10:48:40.162Z,32.26
2022-10-18T10:50:12.277Z,32.16
2022-10-18T10:51:44.170Z,31.75
2022-10-18T10:53:42.207Z,31.79
2022-10-18T10:55:34.952Z,31.63
2022-10-18T10:57:11.416Z,31.80
2022-10-18T10:58:43.491Z,31.44
2022-10-18T11:00:35.448Z,31.29
2022-10-18T11:02:20.901Z,31.15
2022-10-18T11:03:53.694Z,30.99
2022-10-18T11:05:26.114Z,30.86
2022-10-18T11:07:00.260Z,30.69
2022-10-18T11:08:33.273Z,30.57
2022-10-18T11:10:10.814Z,30.63
2022-10-18T11:11:46.940Z,30.51
2022-10-18T11:13:39.638Z,30.47
2022-10-18T11:15:14.459Z,30.08
2022-10-18T11:17:07.882Z,30.29
2022-10-18T11:18:41.107Z,30.34
2022-10-18T11:20:15.712Z,30.05
2022-10-18T11:21:47.512Z,29.90
2022-10-18T11:23:19.459Z,29.94
2022-10-18T11:24:51.107Z,29.95
2022-10-18T11:26:40.867Z,29.67
2022-10-18T11:28:33.124Z,29.19
2022-10-18T11:30:10.972Z,29.31
2022-10-18T11:31:42.695Z,29.20
2022-10-18T11:33:14.323Z,29.06
2022-10-18T11:35:07.363Z,29.13
2022-10-18T11:37:15.949Z,29.03
2022-10-18T11:39:07.728Z,28.83
2022-10-18T11:40:51.197Z,28.78
2022-10-18T11:42:28.575Z,28.94
2022-10-18T11:44:03.399Z,28.86
2022-10-18T11:45:44.397Z,28.51
2022-10-18T11:47:27.855Z,28.60
2022-10-18T11:49:02.722Z,28.32
2022-10-18T11:50:40.414Z,28.25
2022-10-18T11:52:15.109Z,27.97
2022-10-18T11:53:51.623Z,28.01
2022-10-18T11:55:55.886Z,28.24
2022-10-18T11:57:45.932Z,28.11
2022-10-18T11:59:22.349Z,28.16
2022-10-18T12:01:06.715Z,28.00
2022-10-18T12:02:53.314Z,27.88
2022-10-18T12:04:25.412Z,27.46
2022-10-18T12:05:57.395Z,27.50
2022-10-18T12:07:32.582Z,27.32
2022-10-18T12:09:05.369Z,27.32
2022-10-18T12:10:52.570Z,27.56
2022-10-18T12:12:30.551Z,27.26
2022-10-18T12:14:03.336Z,27.03
2022-10-18T12:15:35.827Z,27.04
2022-10-18T12:17:39.626Z,26.91
2022-10-18T12:19:02.980Z,26.84
2022-10-18T12:20:38.765Z,26.76
2022-10-18T12:22:29.356Z,26.87
2022-10-18T12:24:08.588Z,26.76
2022-10-18T12:25:41.036Z,26.53
2022-10-18T12:27:13.970Z,26.39
2022-10-18T12:28:46.422Z,26.41
2022-10-18T12:30:22.877Z,26.45
2022-10-18T12:31:57.842Z,26.26
2022-10-18T12:33:30.556Z,26.28
2022-10-18T12:35:06.217Z,26.22
2022-10-18T12:36:37.890Z,26.11
2022-10-18T12:38:17.941Z,26.00
2022-10-18T12:41:41.083Z,25.83
2022-10-18T12:43:17.659Z,25.82
2022-10-18T12:44:49.824Z,25.84
2022-10-18T12:46:21.425Z,25.69
2022-10-18T12:47:53.321Z,25.73
2022-10-18T12:49:27.930Z,25.62
2022-10-18T12:51:20.013Z,25.87
2022-10-18T12:53:09.586Z,25.66
2022-10-18T12:54:41.490Z,25.79
2022-10-18T12:56:28.105Z,25.68
2022-10-18T12:57:59.846Z,25.50
2022-10-18T12:59:39.803Z,25.39
2022-10-18T13:01:11.415Z,25.43
2022-10-18T13:02:43.380Z,25.04
2022-10-18T13:04:35.745Z,25.34
2022-10-18T13:06:07.499Z,25.04
2022-10-18T13:07:41.395Z,24.86
2022-10-18T13:09:17.687Z,25.12
2022-10-18T13:10:49.483Z,24.90
2022-10-18T13:12:21.414Z,24.92
2022-10-18T13:14:08.671Z,24.70
2022-10-18T13:15:40.499Z,24.83
2022-10-18T13:17:15.339Z,24.94
2022-10-18T13:18:57.390Z,24.62
2022-10-18T13:20:34.282Z,24.54
2022-10-18T13:22:11.766Z,24.69
2022-10-18T13:23:43.340Z,24.67
2022-10-18T13:25:18.979Z,24.66
2022-10-18T13:27:04.137Z,24.75
2022-10-18T13:28:47.963Z,24.65
2022-10-18T13:30:28.664Z,24.78
2022-10-18T13:32:00.765Z,24.41
2022-10-18T13:33:36.119Z,24.39
2022-10-18T13:35:26.704Z,24.42
2022-10-18T13:36:58.412Z,24.35
2022-10-18T13:38:38.426Z,24.33
2022-10-18T13:40:36.610Z,24.50
2022-10-18T13:42:20.601Z,24.26
2022-10-18T13:43:55.391Z,24.04
2022-10-18T13:45:33.223Z,24.24
2022-10-18T13:47:05.031Z,24.04
2022-10-18T13:48:36.785Z,24.08
2022-10-18T13:50:08.556Z,24.27
2022-10-18T13:51:40.128Z,23.86
2022-10-18T13:53:17.395Z,24.13
2022-10-18T13:55:01.028Z,24.07
2022-10-18T13:56:38.798Z,24.06
2022-10-18T13:58:10.449Z,23.83
2022-10-18T13:59:52.282Z,24.15
2022-10-18T14:01:23.980Z,23.95
2022-10-18T14:03:05.510Z,23.88
2022-10-18T14:04:40.495Z,23.92
2022-10-18T14:06:19.527Z,24.13
2022-10-18T14:07:51.684Z,23.94
2022-10-18T14:09:43.694Z,23.75
2022-10-18T14:11:16.044Z,23.90
2022-10-18T14:12:48.276Z,23.74
2022-10-18T14:14:23.450Z,23.57
2022-10-18T14:15:56.473Z,23.71
2022-10-18T14:17:42.893Z,23.82
2022-10-18T14:19:20.257Z,24.00
2022-10-18T14:21:13.726Z,23.73
2022-10-18T14:22:48.675Z,23.74
2022-10-18T14:24:21.656Z,23.73
2022-10-18T14:25:57.115Z,23.54
2022-10-18T14:27:29.774Z,23.87
2022-10-18T14:29:07.796Z,23.80
2022-10-18T14:31:02.235Z,23.67
2022-10-18T14:32:34.059Z,23.73
2022-10-18T14:34:05.761Z,23.57
2022-10-18T14:35:39.407Z,23.54
2022-10-18T14:37:14.818Z,23.52
2022-10-18T14:38:52.276Z,23.68
2022-10-18T14:40:31.387Z,23.65
2022-10-18T14:42:03.553Z,23.52
2022-10-18T14:43:35.197Z,23.70
2022-10-18T14:45:17.437Z,23.40
2022-10-18T14:46:50.654Z,23.74
2022-10-18T14:48:22.938Z,23.86
2022-10-18T14:50:00.845Z,23.68
2022-10-18T14:51:36.211Z,23.85
2022-10-18T14:53:08.748Z,23.48
2022-10-18T14:54:40.845Z,23.43
2022-10-18T14:56:23.565Z,23.51
2022-10-18T14:57:56.120Z,23.48
2022-10-18T14:59:29.797Z,23.53
2022-10-18T15:01:01.839Z,23.87
2022-10-18T15:02:35.985Z,23.83
2022-10-18T15:04:11.514Z,23.59
2022-10-18T15:05:56.528Z,23.74
2022-10-18T15:07:31.569Z,24.04
2022-10-18T15:09:04.882Z,24.29
2022-10-18T15:10:38.485Z,24.39
2022-10-18T15:12:11.720Z,24.34
2022-10-18T15:13:51.458Z,24.45
2022-10-18T15:15:27.096Z,24.33
2022-10-18T15:17:00.294Z,24.25
2022-10-18T15:18:32.484Z,24.20
2022-10-18T15:20:06.518Z,24.43
2022-10-18T15:21:38.736Z,24.32
2022-10-18T15:23:24.065Z,24.41
2022-10-18T15:25:16.032Z,24.48
2022-10-18T15:26:48.209Z,24.55
2022-10-18T15:28:30.315Z,24.50
2022-10-18T15:30:09.163Z,24.59
2022-10-18T15:31:43.422Z,24.58
2022-10-18T15:33:22.487Z,24.55
2022-10-18T15:34:54.539Z,24.57
2022-10-18T15:36:27.890Z,24.52
2022-10-18T15:38:02.723Z,24.61
2022-10-18T15:39:34.683Z,24.53
2022-10-18T15:41:25.040Z,24.65
2022-10-18T15:42:57.407Z,24.57
2022-10-18T15:44:31.716Z,24.59
2022-10-18T15:46:06.503Z,24.82
2022-10-18T15:47:39.336Z,24.93
2022-10-18T15:49:30.009Z,24.78
2022-10-18T15:51:05.974Z,25.03
2022-10-18T15:52:39.157Z,25.04
2022-10-18T15:54:16.925Z,24.99
2022-10-18T15:55:52.596Z,25.03
2022-10-18T15:57:26.711Z,25.32
2022-10-18T15:59:03.660Z,25.22
2022-10-18T16:00:35.236Z,25.27
2022-10-18T16:02:11.841Z,25.05
2022-10-18T16:03:43.971Z,25.27
2022-10-18T16:05:18.927Z,25.14
2022-10-18T16:06:51.156Z,25.24
2022-10-18T16:08:26.643Z,25.27
2022-10-18T16:09:58.373Z,25.16
2022-10-18T16:11:30.479Z,25.19
2022-10-18T16:13:02.297Z,25.29
2022-10-18T16:14:33.849Z,25.39
2022-10-18T16:16:05.504Z,25.40
2022-10-18T16:17:37.921Z,25.48
2022-10-18T16:19:11.377Z,25.54
2022-10-18T16:20:43.359Z,25.44
2022-10-18T16:22:15.341Z,25.71
2022-10-18T16:23:47.715Z,25.59
2022-10-18T16:25:19.915Z,25.65
2022-10-18T16:26:57.637Z,25.66
2022-10-18T16:28:32.167Z,25.59
2022-10-18T16:30:10.759Z,25.64
2022-10-18T16:31:42.563Z,25.71
2022-10-18T16:33:17.839Z,25.89
2022-10-18T16:34:52.299Z,26.07
2022-10-18T16:36:24.955Z,26.05
2022-10-18T16:37:56.908Z,26.14
2022-10-18T16:39:30.162Z,26.05
2022-10-18T16:41:04.914Z,26.08
2022-10-18T16:42:37.160Z,26.16
2022-10-18T16:44:09.200Z,26.16
2022-10-18T16:45:41.227Z,26.12
2022-10-18T16:47:13.230Z,25.91
2022-10-18T16:48:45.090Z,26.10
2022-10-18T16:50:17.993Z,25.87
2022-10-18T16:51:50.326Z,26.03
2022-10-18T16:53:24.121Z,26.05
2022-10-18T16:54:55.866Z,25.85
2022-10-18T16:56:28.803Z,26.06
2022-10-18T16:58:00.382Z,26.20
2022-10-18T16:59:32.055Z,26.06
2022-10-18T17:01:06.666Z,26.19
2022-10-18T17:02:41.046Z,26.28
2022-10-18T17:04:12.568Z,26.41
2022-10-18T17:05:44.148Z,26.29
2022-10-18T17:07:18.553Z,26.14
2022-10-18T17:08:50.409Z,26.35
2022-10-18T17:10:24.488Z,26.11
2022-10-18T17:11:56.073Z,26.27
2022-10-18T17:13:27.778Z,26.19
2022-10-18T17:14:59.442Z,26.25
2022-10-18T17:16:32.113Z,26.03
2022-10-18T17:18:04.253Z,26.25
2022-10-18T17:19:36.284Z,26.26
2022-10-18T17:21:07.969Z,26.04
2022-10-18T17:22:40.080Z,26.18
2022-10-18T17:24:12.070Z,26.12
2022-10-18T17:25:57.542Z,26.27
2022-10-18T17:27:36.499Z,26.08
2022-10-18T17:29:10.961Z,26.11
2022-10-18T17:30:43.028Z,25.96
2022-10-18T17:32:14.715Z,25.95
2022-10-18T17:33:46.413Z,26.12
2022-10-18T17:35:18.085Z,26.27
2022-10-18T17:36:49.739Z,26.05
2022-10-18T17:38:21.327Z,26.28
2022-10-18T17:39:52.972Z,26.19
2022-10-18T17:41:24.544Z,25.93
2022-10-18T17:42:56.173Z,26.37
2022-10-18T17:44:27.940Z,26.31
2022-10-18T17:45:59.587Z,26.29
2022-10-18T17:47:31.559Z,26.39
2022-10-18T17:49:03.512Z,26.36
2022-10-18T17:50:35.321Z,26.46
2022-10-18T17:52:07.167Z,25.99
2022-10-18T17:53:38.929Z,26.39
2022-10-18T17:55:10.709Z,26.02
2022-10-18T17:56:42.357Z,26.32
2022-10-18T17:58:13.995Z,26.09
2022-10-18T17:59:47.190Z,25.89
2022-10-18T18:01:19.866Z,26.16
2022-10-18T18:02:51.579Z,26.14
2022-10-18T18:04:24.226Z,26.07
2022-10-18T18:05:55.805Z,26.27
2022-10-18T18:07:27.349Z,26.40
2022-10-18T18:08:59.065Z,25.82
2022-10-18T18:10:32.120Z,26.26
2022-10-18T18:12:03.964Z,26.34
2022-10-18T18:13:35.536Z,25.88
2022-10-18T18:15:07.439Z,26.21
2022-10-18T18:16:39.918Z,26.30
2022-10-18T18:18:11.478Z,26.11
2022-10-18T18:19:43.044Z,25.91
2022-10-18T18:21:14.747Z,25.90
2022-10-18T18:22:46.643Z,26.13
2022-10-18T18:24:24.542Z,25.85
2022-10-18T18:25:56.899Z,25.56
2022-10-18T18:27:28.571Z,25.75
2022-10-18T18:29:00.875Z,25.50
2022-10-18T18:30:32.508Z,25.69
2022-10-18T18:32:04.547Z,25.76
2022-10-18T18:33:36.539Z,25.36
2022-10-18T18:35:08.166Z,25.27
2022-10-18T18:36:39.903Z,25.17
2022-10-18T18:38:11.501Z,25.46
2022-10-18T18:39:43.450Z,25.13
2022-10-18T18:41:15.923Z,25.11
2022-10-18T18:43:01.803Z,25.29
2022-10-18T18:44:39.525Z,25.23
2022-10-18T18:46:11.471Z,25.29
2022-10-18T18:47:43.117Z,25.54
2022-10-18T18:49:14.845Z,25.38
2022-10-18T18:50:50.871Z,25.79
2022-10-18T18:52:22.411Z,25.35
2022-10-18T18:53:54.022Z,25.66
2022-10-18T18:55:25.610Z,25.37
2022-10-18T18:56:58.105Z,25.61
2022-10-18T18:58:29.739Z,25.39
2022-10-18T19:00:01.370Z,25.37
2022-10-18T19:01:33.785Z,25.55
2022-10-18T19:03:06.008Z,25.62
2022-10-18T19:04:37.628Z,25.68
2022-10-18T19:06:10.023Z,25.47
2022-10-18T19:07:41.644Z,25.36
2022-10-18T19:09:19.808Z,25.99
2022-10-18T19:10:52.410Z,25.33
2022-10-18T19:12:23.933Z,25.40
2022-10-18T19:13:55.858Z,25.60
2022-10-18T19:15:27.459Z,25.50
2022-10-18T19:16:59.566Z,25.52
2022-10-18T19:18:31.106Z,25.59
2022-10-18T19:20:03.355Z,25.74
2022-10-18T19:21:38.450Z,25.48
2022-10-18T19:23:10.158Z,25.75
2022-10-18T19:24:41.790Z,25.43
2022-10-18T19:26:14.750Z,25.64
2022-10-18T19:27:46.410Z,25.53
2022-10-18T19:29:18.669Z,25.85
2022-10-18T19:30:50.847Z,25.91
2022-10-18T19:32:23.157Z,25.48
2022-10-18T19:33:59.535Z,25.68
2022-10-18T19:35:31.760Z,25.93
2022-10-18T19:37:03.514Z,25.80
2022-10-18T19:38:35.312Z,25.56
2022-10-18T19:40:07.051Z,25.54
2022-10-18T19:41:38.704Z,25.72
2022-10-18T19:43:10.480Z,25.96
2022-10-18T19:44:42.277Z,25.97
2022-10-18T19:46:13.871Z,26.07
2022-10-18T19:47:45.434Z,26.05
2022-10-18T19:49:17.303Z,26.10
2022-10-18T19:50:50.452Z,25.81
2022-10-18T19:52:21.940Z,26.26
2022-10-18T19:53:54.241Z,26.05
2022-10-18T19:55:27.371Z,26.09
2022-10-18T19:56:58.870Z,26.23
2022-10-18T19:58:30.544Z,26.01
2022-10-18T20:00:03.559Z,26.07
2022-10-18T20:01:37.178Z,26.31
2022-10-18T20:03:09.084Z,26.15
2022-10-18T20:04:40.620Z,26.40
2022-10-18T20:06:30.057Z,26.48
2022-10-18T20:08:01.569Z,26.30
2022-10-18T20:09:33.915Z,26.35
2022-10-18T20:11:06.460Z,26.28
2022-10-18T20:12:38.109Z,26.41
2022-10-18T20:14:10.931Z,26.58
2022-10-18T20:15:42.599Z,26.41
2022-10-18T20:17:14.631Z,26.60
2022-10-18T20:18:46.436Z,26.82
2022-10-18T20:20:18.763Z,26.97
2022-10-18T20:21:50.444Z,26.73
2022-10-18T20:23:22.139Z,26.79